Ana Sayfa
METAR-TAF:

METAR-TAF

Havaalanları :

Kunming, Çin

Enlem: 25-01N, Boylam: 102-41E, yükseklik: 1892 m

Güncel hava durumu gözlemi

Rapor saat 15:00 UTC de 4 saat ve 6 dakika önce yapıldı.
Rüzgar güneybatıdan 12 kt
Sıcaklık 11°C
Nem 47%
Basınç 1019 hPa
Görüş mesafesi 10 km veya daha fazla
1500 m altında bulut yok ve kümülonimbus yok

METAR: ZPPP 201500Z 22006MPS CAVOK 11/00 Q1019 NOSIG

Saat: 03:06 (19:06 UTC)

Tahmin

Rapor saat 07:07 UTC de 11 saat ve 59 dakika önce yapıldı.
Ayın 20'si saat 12 UTC'den ayın 21'si saat 12 UTC'ye kadar geçerli Tahmin
Rüzgar güneybatıdan 12 kt
Görüş mesafesi 10 km veya daha fazla
1500 m altında bulut yok ve kümülonimbus yok
Dönüşüyor
ayın 21'si saat 03 UTC'den ayın 21'si saat 04 UTC'ye kadar
Rüzgar güneybatıdan 23 kt ve 33 kt'a kadar ani rüzgarlar

TAF: ZPPP 200707Z 2012/2112 22006MPS CAVOK TX21/2108Z TN05/2023Z BECMG 2103/2104 22012G17MPS

4.000'den fazla havaalanı için hava durumu gözlemleri ve tahminleri (METAR ve TAF raporları).

Kullanılabilir istasyonlar harita üzerinde sarı ve kırmızı noktalarla gösterilir.

İstasyonun adını görmek için fareyi noktanın üzerinde gezdirin.

Sonrasında hava gözlem ve tahminlerini görmek için tıklayın.

Haritayı değiştirmek için: yaklaştırmak için siyah artı işaretli yeşil düğmeye ve uzaklaştırmak için de eksi işaretli düğmeye hızla tıklayın; bitişik haritalar için yeşil okları kullanın.


METAR-TAF: